This is the latest recevied weather packets stored in our database for station/object KB3AWQ. If no packets are shown the sender has not sent any weather packets the latest 10 day(s).
| Time | Temp. | Humidity | Pressure | Rain* | Wind** | Luminosity | Snow |
|---|---|---|---|---|---|---|---|
| 1777580967 | 13.33° C | 72% | 1009.6 hPa | 0 mm | - | 66 W/m² | - |
| 1777580667 | 13.33° C | 71% | 1009.5 hPa | 0 mm | - | 83 W/m² | - |
| 1777580367 | 13.33° C | 70% | 1009.5 hPa | 0 mm | - | 85 W/m² | - |
| 1777580066 | 13.33° C | 68% | 1009.4 hPa | 0 mm | - | 110 W/m² | - |
| 1777579771 | 13.33° C | 69% | 1009.4 hPa | 0 mm | - | 160 W/m² | - |
| 1777579467 | 13.33° C | 69% | 1009.2 hPa | 0 mm | - | 236 W/m² | - |
| 1777579168 | 13.33° C | 71% | 1009.2 hPa | 0 mm | - | 220 W/m² | - |
| 1777578867 | 13.89° C | 70% | 1009.2 hPa | 0 mm | - | 138 W/m² | - |
| 1777578568 | 13.89° C | 72% | 1009.2 hPa | 0 mm | - | 117 W/m² | - |
| 1777578267 | 13.89° C | 70% | 1009.2 hPa | 0 mm | - | 90 W/m² | - |
| 1777577967 | 14.44° C | 67% | 1009.2 hPa | 0 mm | - | 153 W/m² | - |
| 1777577667 | 14.44° C | 66% | 1009.1 hPa | 0 mm | - | 157 W/m² | - |
| 1777577371 | 15° C | 66% | 1009 hPa | 0 mm | - | 221 W/m² | - |
| 1777577068 | 15° C | 63% | 1009 hPa | 0 mm | - | 221 W/m² | - |
| 1777576767 | 15° C | 62% | 1009 hPa | 0 mm | - | 200 W/m² | - |
| 1777576468 | 15° C | 62% | 1009 hPa | 0 mm | - | 237 W/m² | - |
| 1777576166 | 15.56° C | 62% | 1009.1 hPa | 0 mm | - | 269 W/m² | - |
| 1777575867 | 15.56° C | 62% | 1009.1 hPa | 0 mm | - | 217 W/m² | - |
| 1777575311 | 16.11° C | 61% | 1009.1 hPa | 0 mm | - | 245 W/m² | - |
| 1777574966 | 16.67° C | 59% | 1009 hPa | 0 mm | - | 280 W/m² | - |
| 1777574667 | 16.67° C | 58% | 1009.1 hPa | 0 mm | - | 520 W/m² | - |
| 1777574366 | 16.67° C | 59% | 1009.2 hPa | 0 mm | - | 797 W/m² | - |
| 1777574067 | 15.56° C | 65% | 1009.1 hPa | 0 mm | - | 997 W/m² | - |
| 1777573767 | 15° C | 65% | 1009.1 hPa | 0 mm | - | 763 W/m² | - |
| 1777573467 | 15° C | 66% | 1009.2 hPa | 0 mm | - | 452 W/m² | - |
* Rain latest hour (hover to see other rain measurements)
** Current wind speed in m/s (hover to see current wind gust speed)